Time;durP1;ratioP1;P1;durP2;ratioP2;P2;SDS_P1;SDS_P2;PMS_P1;PMS_P2;Temp;Humidity;BMP_temperature;BMP_pressure;BME280_temperature;BME280_humidity;BME280_pressure;Samples;Min_cycle;Max_cycle;Signal;HPM_P1;HPM_P2
2022/09/08 00:02:11;;;;;;;13.40;12.20;;;16.80;99.90;;;;;;4937422;28;20378;-82
2022/09/08 00:04:36;;;;;;;15.30;13.98;;;16.90;99.90;;;;;;4942497;28;20432;-83
2022/09/08 00:07:03;;;;;;;16.50;14.93;;;16.90;99.90;;;;;;4942617;28;20074;-83
2022/09/08 00:09:32;;;;;;;14.70;13.38;;;16.90;99.90;;;;;;4941055;28;20039;-83
2022/09/08 00:11:58;;;;;;;16.40;15.00;;;16.90;99.90;;;;;;4946884;28;20412;-83
2022/09/08 00:14:24;;;;;;;17.48;15.63;;;16.90;99.90;;;;;;4942813;28;20090;-83
2022/09/08 00:16:50;;;;;;;19.35;17.58;;;16.90;99.90;;;;;;4940729;28;20075;-82
2022/09/08 00:19:16;;;;;;;17.85;16.35;;;16.90;99.90;;;;;;4943564;28;20210;-83
2022/09/08 00:21:42;;;;;;;16.60;15.13;;;16.90;99.90;;;;;;4956930;28;22043;-83
2022/09/08 00:24:08;;;;;;;18.00;16.55;;;16.80;99.90;;;;;;4954289;28;20035;-83
2022/09/08 00:26:33;;;;;;;17.77;16.20;;;16.80;99.90;;;;;;4942009;28;20075;-83
2022/09/08 00:28:59;;;;;;;19.63;17.90;;;16.90;99.90;;;;;;4945399;28;20074;-82
2022/09/08 00:31:25;;;;;;;20.00;18.20;;;16.80;99.90;;;;;;4956571;28;20102;-83
2022/09/08 00:33:50;;;;;;;19.02;17.33;;;16.80;99.90;;;;;;4949899;28;20042;-83
2022/09/08 00:36:17;;;;;;;18.60;17.10;;;16.80;99.90;;;;;;4942686;28;20133;-83
2022/09/08 00:38:51;;;;;;;19.95;17.98;;;16.70;99.90;;;;;;4943655;28;20047;-83
2022/09/08 00:41:19;;;;;;;19.52;17.83;;;16.80;99.90;;;;;;4955708;28;20039;-83
2022/09/08 00:43:47;;;;;;;21.33;19.48;;;16.80;99.90;;;;;;4952695;28;20047;-83
2022/09/08 00:46:33;;;;;;;22.40;20.52;;;16.80;99.90;;;;;;4948180;28;20054;-83
2022/09/08 00:49:19;;;;;;;23.13;20.95;;;16.70;99.90;;;;;;4941487;28;20051;-83
2022/09/08 00:51:56;;;;;;;22.63;20.60;;;16.80;99.90;;;;;;4946240;28;20048;-83
2022/09/08 00:54:22;;;;;;;24.23;22.23;;;16.80;99.90;;;;;;4936982;28;20054;-83
2022/09/08 00:56:49;;;;;;;24.38;22.38;;;16.70;99.90;;;;;;4953005;28;20071;-83
2022/09/08 00:59:19;;;;;;;25.55;23.25;;;16.70;99.90;;;;;;4953460;28;20085;-83
2022/09/08 01:01:44;;;;;;;26.48;23.80;;;16.80;99.90;;;;;;4951524;28;20657;-83
2022/09/08 01:04:10;;;;;;;26.48;24.05;;;16.70;99.90;;;;;;4940330;28;20045;-83
2022/09/08 01:12:44;;;;;;;26.52;24.13;;;16.90;99.90;;;;;;4940408;28;20047;-83
2022/09/08 01:15:26;;;;;;;26.02;23.85;;;16.90;99.90;;;;;;4936470;28;20475;-83
2022/09/08 01:17:54;;;;;;;27.35;24.80;;;17.00;99.90;;;;;;4951678;28;20046;-83
2022/09/08 01:20:34;;;;;;;26.98;23.83;;;16.90;99.90;;;;;;4940107;28;20043;-83
2022/09/08 01:23:42;;;;;;;25.50;23.17;;;17.00;99.90;;;;;;4952511;28;20039;-83
2022/09/08 01:26:39;;;;;;;28.15;25.55;;;17.00;99.90;;;;;;4939994;28;20062;-83
2022/09/08 01:29:06;;;;;;;;;;;17.00;99.90;;;;;;4939758;28;20056;-83
2022/09/08 01:31:35;;;;;;;28.90;26.27;;;17.00;99.90;;;;;;4943817;28;19926;-83
2022/09/08 01:34:02;;;;;;;27.40;24.80;;;17.00;99.90;;;;;;4935653;28;20071;-83
2022/09/08 01:36:28;;;;;;;27.20;24.88;;;17.10;99.90;;;;;;4954304;28;20145;-83
2022/09/08 01:38:54;;;;;;;28.55;25.83;;;17.10;99.90;;;;;;4952656;28;20130;-83
2022/09/08 01:41:19;;;;;;;27.75;25.15;;;17.10;99.90;;;;;;4947351;28;20121;-83
2022/09/08 01:43:45;;;;;;;28.52;25.73;;;17.20;99.90;;;;;;4955870;28;20126;-84
2022/09/08 01:46:11;;;;;;;28.23;25.30;;;17.20;99.90;;;;;;4953986;28;20051;-83
2022/09/08 01:48:36;;;;;;;28.00;25.58;;;17.20;99.90;;;;;;4950134;28;20043;-84
2022/09/08 01:51:05;;;;;;;25.90;23.80;;;17.20;99.90;;;;;;4936419;28;20515;-83
2022/09/08 01:53:31;;;;;;;27.58;24.83;;;17.30;99.90;;;;;;4951419;28;20050;-83
2022/09/08 01:55:56;;;;;;;27.38;24.65;;;17.20;99.90;;;;;;4941986;28;20047;-83
2022/09/08 01:58:22;;;;;;;28.80;26.13;;;17.30;99.90;;;;;;4940159;28;20047;-83
2022/09/08 02:00:48;;;;;;;25.73;23.65;;;17.30;99.90;;;;;;4949701;28;20079;-83
2022/09/08 02:03:14;;;;;;;27.58;25.25;;;17.30;99.90;;;;;;4948413;28;20694;-83
2022/09/08 02:05:41;;;;;;;27.23;24.92;;;17.30;99.90;;;;;;4950801;28;20052;-83
2022/09/08 02:08:08;;;;;;;29.08;26.42;;;17.30;99.90;;;;;;4952687;28;20047;-83
2022/09/08 02:10:34;;;;;;;28.50;25.80;;;17.30;99.90;;;;;;4942355;28;20051;-83
2022/09/08 02:13:00;;;;;;;27.65;25.42;;;17.30;99.90;;;;;;4935974;28;20459;-83
2022/09/08 02:15:26;;;;;;;27.80;25.40;;;17.40;99.90;;;;;;4936762;28;20122;-83
2022/09/08 02:17:51;;;;;;;28.65;26.25;;;17.40;99.90;;;;;;4944739;28;20098;-83
2022/09/08 02:20:17;;;;;;;28.05;25.58;;;17.40;99.90;;;;;;4930182;29;20187;-83
2022/09/08 02:22:43;;;;;;;27.70;25.17;;;17.30;99.90;;;;;;4943386;28;20039;-83
2022/09/08 02:25:08;;;;;;;28.33;25.83;;;17.40;99.90;;;;;;4943560;28;20039;-83
2022/09/08 02:27:34;;;;;;;29.50;27.02;;;17.30;99.90;;;;;;4960220;28;20035;-83
2022/09/08 02:30:00;;;;;;;29.27;26.38;;;17.40;99.90;;;;;;4945797;28;20141;-83
2022/09/08 02:32:26;;;;;;;29.90;27.30;;;17.30;99.90;;;;;;4956452;28;20052;-83
2022/09/08 02:34:52;;;;;;;30.45;27.70;;;17.40;99.90;;;;;;4944381;28;20680;-83
2022/09/08 02:37:18;;;;;;;29.15;26.65;;;17.30;99.90;;;;;;4953162;28;20069;-83
2022/09/08 02:39:44;;;;;;;29.92;27.23;;;17.30;99.90;;;;;;4941841;28;20633;-83
2022/09/08 02:42:11;;;;;;;29.00;26.60;;;17.30;99.90;;;;;;4952838;28;20047;-83
2022/09/08 02:44:38;;;;;;;30.17;27.58;;;17.40;99.90;;;;;;4941333;28;20079;-83
2022/09/08 02:47:04;;;;;;;29.83;27.17;;;17.30;99.90;;;;;;4947909;28;20579;-83
2022/09/08 02:49:31;;;;;;;30.80;27.92;;;17.30;99.90;;;;;;4953266;28;20174;-84
2022/09/08 02:51:57;;;;;;;31.42;28.83;;;17.30;99.90;;;;;;4946076;28;20090;-83
2022/09/08 02:54:23;;;;;;;29.90;27.30;;;17.40;99.90;;;;;;4942654;28;20035;-83
2022/09/08 02:56:49;;;;;;;31.00;28.17;;;17.40;99.90;;;;;;4954828;28;20040;-83
2022/09/08 02:59:15;;;;;;;30.45;27.98;;;17.30;99.90;;;;;;4945863;28;20118;-83
2022/09/08 03:01:42;;;;;;;31.17;28.58;;;17.40;99.90;;;;;;4943572;28;20044;-83
2022/09/08 03:04:07;;;;;;;30.95;28.45;;;17.30;99.90;;;;;;4929545;29;20066;-82
2022/09/08 03:06:33;;;;;;;30.85;28.23;;;17.30;99.90;;;;;;4939304;28;20151;-84
2022/09/08 03:08:59;;;;;;;30.83;28.13;;;17.30;99.90;;;;;;4941782;28;20046;-83
2022/09/08 03:11:24;;;;;;;32.53;29.92;;;17.30;99.90;;;;;;4944361;28;20179;-83
2022/09/08 03:13:50;;;;;;;32.20;29.45;;;17.40;99.90;;;;;;4942230;28;20191;-83
2022/09/08 03:16:15;;;;;;;31.70;28.77;;;17.40;99.90;;;;;;4944025;28;20345;-83
2022/09/08 03:18:41;;;;;;;32.28;29.27;;;17.40;99.90;;;;;;4940141;28;20113;-82
2022/09/08 03:21:10;;;;;;;32.08;29.15;;;17.40;99.90;;;;;;4949075;28;20372;-83
2022/09/08 03:23:37;;;;;;;32.67;29.95;;;17.40;99.90;;;;;;4942188;28;20673;-82
2022/09/08 03:26:15;;;;;;;31.08;28.48;;;17.40;99.90;;;;;;4944676;28;20504;-82
2022/09/08 03:28:42;;;;;;;32.78;29.75;;;17.40;99.90;;;;;;4953603;28;20044;-82
2022/09/08 03:31:09;;;;;;;31.30;28.77;;;17.40;99.90;;;;;;4945479;28;20043;-83
2022/09/08 03:33:36;;;;;;;31.42;28.42;;;17.40;99.90;;;;;;4956922;28;20051;-83
2022/09/08 03:36:04;;;;;;;32.15;29.42;;;17.40;99.90;;;;;;4944350;28;20043;-83
2022/09/08 03:38:30;;;;;;;30.30;27.70;;;17.40;99.90;;;;;;4938956;28;20126;-83
2022/09/08 03:40:55;;;;;;;32.45;29.42;;;17.40;99.90;;;;;;4938308;28;20051;-83
2022/09/08 03:43:21;;;;;;;33.08;30.25;;;17.40;99.90;;;;;;4944959;28;20043;-83
2022/09/08 03:45:47;;;;;;;30.75;27.95;;;17.40;99.90;;;;;;4943695;28;20090;-83
2022/09/08 03:48:14;;;;;;;32.83;30.05;;;17.40;99.90;;;;;;4940767;28;20163;-83
2022/09/08 03:50:40;;;;;;;31.95;28.92;;;17.40;99.90;;;;;;4948530;28;20112;-83
2022/09/08 03:53:05;;;;;;;32.72;29.63;;;17.40;99.90;;;;;;4931310;28;20047;-83
2022/09/08 03:55:31;;;;;;;31.65;28.88;;;17.50;99.90;;;;;;4942758;29;20416;-83
2022/09/08 03:57:59;;;;;;;31.17;28.23;;;17.40;99.90;;;;;;4942413;28;20043;-83
2022/09/08 04:00:25;;;;;;;33.47;30.15;;;17.50;99.90;;;;;;4936922;28;20047;-83
2022/09/08 04:02:50;;;;;;;33.10;30.15;;;17.50;99.90;;;;;;4941225;28;20055;-83
2022/09/08 04:05:25;;;;;;;31.45;28.40;;;17.50;99.90;;;;;;4936614;28;21668;-83
2022/09/08 04:07:51;;;;;;;31.20;28.48;;;17.60;99.90;;;;;;4938104;28;20045;-83
2022/09/08 04:10:17;;;;;;;30.05;27.42;;;17.50;99.90;;;;;;4940575;28;20047;-82
2022/09/08 04:12:43;;;;;;;30.50;27.70;;;17.50;99.90;;;;;;4951684;28;20051;-82
2022/09/08 04:15:09;;;;;;;29.58;26.48;;;17.50;99.90;;;;;;4958546;28;20066;-84
2022/09/08 04:17:35;;;;;;;29.33;26.88;;;17.50;99.90;;;;;;4941057;28;20075;-83
2022/09/08 04:20:22;;;;;;;30.23;27.52;;;17.50;99.90;;;;;;4941186;28;20043;-82
2022/09/08 04:22:47;;;;;;;30.77;28.23;;;17.50;99.90;;;;;;4955292;28;20044;-82
2022/09/08 04:25:13;;;;;;;31.40;28.50;;;17.60;99.90;;;;;;4956975;28;20051;-82
2022/09/08 04:27:38;;;;;;;31.02;28.50;;;17.50;99.90;;;;;;4942801;28;20074;-82
2022/09/08 04:30:04;;;;;;;30.98;28.15;;;17.40;99.90;;;;;;4945034;28;20046;-82
2022/09/08 04:32:30;;;;;;;29.98;27.23;;;17.50;99.90;;;;;;4945292;28;20076;-84
2022/09/08 04:34:55;;;;;;;31.85;29.10;;;17.50;99.90;;;;;;4963843;28;20039;-82
2022/09/08 04:37:21;;;;;;;29.73;27.13;;;17.40;99.90;;;;;;4954502;28;20058;-83
2022/09/08 04:39:51;;;;;;;29.85;27.55;;;17.40;99.90;;;;;;4942152;28;20044;-86
2022/09/08 05:11:16;;;;;;;31.08;28.30;;;17.20;99.90;;;;;;4885802;29;20043;-85
2022/09/08 05:13:43;;;;;;;33.63;30.73;;;17.20;99.90;;;;;;4886862;29;20512;-85
2022/09/08 05:16:16;;;;;;;32.53;29.60;;;17.20;99.90;;;;;;4875324;28;20048;-85
2022/09/08 05:18:47;;;;;;;31.98;29.25;;;17.20;99.90;;;;;;4928929;28;20109;-83
2022/09/08 05:24:09;;;;;;;32.83;29.85;;;17.30;99.90;;;;;;4949357;28;20151;-83
2022/09/08 05:26:35;;;;;;;30.08;27.40;;;17.30;99.90;;;;;;4942399;28;20975;-81
2022/09/08 05:29:03;;;;;;;30.13;27.42;;;17.30;99.90;;;;;;4940569;28;20043;-81
2022/09/08 05:31:29;;;;;;;32.38;29.42;;;17.30;99.90;;;;;;4958237;28;20503;-83
2022/09/08 05:33:57;;;;;;;31.73;28.73;;;17.40;99.90;;;;;;4939750;28;20115;-83
2022/09/08 05:36:29;;;;;;;75.50;28.50;;;17.30;99.90;;;;;;4955933;28;20075;-83
2022/09/08 05:38:55;;;;;;;32.03;29.13;;;17.40;99.90;;;;;;4941713;28;20051;-83
2022/09/08 05:41:21;;;;;;;31.48;28.75;;;17.40;99.90;;;;;;4931603;29;20086;-83
2022/09/08 05:43:47;;;;;;;31.52;28.52;;;17.40;99.90;;;;;;4924640;28;20039;-83
2022/09/08 05:46:13;;;;;;;31.40;28.50;;;17.50;99.90;;;;;;4952726;28;20043;-83
2022/09/08 05:48:38;;;;;;;31.60;28.92;;;17.50;99.90;;;;;;4938629;29;20164;-83
2022/09/08 05:51:10;;;;;;;33.20;30.30;;;17.50;99.90;;;;;;4942827;28;20051;-83
2022/09/08 05:54:15;;;;;;;36.05;32.42;;;17.50;99.90;;;;;;4948418;28;20046;-85
2022/09/08 05:56:41;;;;;;;34.78;31.70;;;17.50;99.90;;;;;;4942246;28;20090;-83
2022/09/08 05:59:09;;;;;;;38.08;34.45;;;17.50;99.90;;;;;;4941146;28;20044;-83
2022/09/08 06:01:35;;;;;;;52.33;38.88;;;17.40;99.90;;;;;;4963723;28;20146;-83
2022/09/08 06:04:02;;;;;;;72.43;41.42;;;17.40;99.90;;;;;;4941099;28;20536;-82
2022/09/08 06:06:34;;;;;;;43.58;38.80;;;17.40;99.90;;;;;;4959016;28;20043;-83
2022/09/08 06:09:00;;;;;;;32.80;29.10;;;17.30;99.90;;;;;;4933115;29;20127;-82
2022/09/08 06:11:28;;;;;;;33.53;30.00;;;17.30;99.90;;;;;;4955695;28;20039;-82
2022/09/08 06:13:54;;;;;;;43.80;39.03;;;17.20;99.90;;;;;;4966744;28;20078;-82
2022/09/08 06:16:21;;;;;;;44.25;39.72;;;17.20;99.90;;;;;;4940690;29;20036;-83
2022/09/08 06:18:58;;;;;;;47.70;42.97;;;17.30;99.90;;;;;;4968449;28;20049;-84
2022/09/08 06:21:40;;;;;;;48.38;43.67;;;17.10;99.90;;;;;;4951700;28;20488;-83
2022/09/08 06:24:13;;;;;;;48.53;43.47;;;17.10;99.90;;;;;;4954222;28;20044;-84
2022/09/08 06:27:27;;;;;;;47.72;43.00;;;17.50;99.90;;;;;;4951275;29;20047;-83
2022/09/08 06:30:18;;;;;;;46.15;41.40;;;17.10;99.90;;;;;;4950347;28;20408;-83
2022/09/08 06:32:50;;;;;;;45.40;40.45;;;17.10;99.90;;;;;;4948301;29;20495;-83
2022/09/08 06:35:44;;;;;;;47.15;41.38;;;17.10;99.90;;;;;;4942035;29;20058;-83
2022/09/08 06:38:48;;;;;;;46.80;40.97;;;17.00;99.90;;;;;;4955705;29;20054;-83
2022/09/08 06:41:30;;;;;;;44.63;39.92;;;17.10;99.90;;;;;;4932786;29;20055;-83
2022/09/08 06:45:04;;;;;;;42.42;38.15;;;17.10;99.90;;;;;;4952393;28;20036;-83
2022/09/08 06:48:10;;;;;;;42.60;38.33;;;17.10;99.90;;;;;;4941857;28;20055;-83
2022/09/08 06:51:07;;;;;;;41.80;37.50;;;17.10;99.90;;;;;;4958978;28;20171;-83
2022/09/08 06:54:26;;;;;;;41.15;37.08;;;17.10;99.90;;;;;;4958559;28;20055;-84
2022/09/08 06:58:11;;;;;;;42.55;38.13;;;17.10;99.90;;;;;;4920609;29;20179;-83
2022/09/08 07:01:44;;;;;;;42.45;38.05;;;17.00;99.90;;;;;;4940393;28;20159;-83
2022/09/08 07:04:55;;;;;;;38.75;34.72;;;17.00;99.90;;;;;;4957303;28;20043;-84
2022/09/08 07:07:51;;;;;;;41.53;37.17;;;16.90;99.90;;;;;;4956661;28;20507;-83
2022/09/08 07:10:42;;;;;;;39.40;34.83;;;17.00;99.90;;;;;;4946336;29;20542;-84
2022/09/08 07:13:33;;;;;;;36.33;32.65;;;17.00;99.90;;;;;;4958746;28;20302;-83
2022/09/08 07:16:25;;;;;;;34.60;31.08;;;16.90;99.90;;;;;;4957590;29;20043;-84
2022/09/08 07:19:18;;;;;;;32.55;29.45;;;16.90;99.90;;;;;;4947649;29;20052;-83
2022/09/08 07:21:52;;;;;;;33.90;30.45;;;16.90;99.90;;;;;;4950499;29;20455;-83
2022/09/08 07:24:21;;;;;;;32.38;29.08;;;16.90;99.90;;;;;;4937053;29;20122;-83
2022/09/08 07:26:56;;;;;;;32.53;29.33;;;16.90;99.90;;;;;;4955163;28;20599;-83
2022/09/08 07:29:33;;;;;;;33.47;29.98;;;17.00;99.90;;;;;;4959889;29;20046;-83
2022/09/08 07:32:14;;;;;;;34.38;30.98;;;17.00;99.90;;;;;;4943455;29;20039;-83
2022/09/08 07:34:49;;;;;;;40.83;34.15;;;17.00;99.90;;;;;;4957383;28;20050;-84
2022/09/08 07:37:42;;;;;;;40.13;34.47;;;17.10;99.90;;;;;;4956357;28;20047;-83
2022/09/08 07:40:39;;;;;;;38.97;34.53;;;17.00;99.90;;;;;;4948069;28;20044;-83
2022/09/08 07:43:17;;;;;;;40.72;36.47;;;17.00;99.90;;;;;;4951485;28;20059;-83
2022/09/08 07:45:48;;;;;;;40.58;36.47;;;17.10;99.90;;;;;;4950096;28;20051;-83
2022/09/08 07:48:41;;;;;;;41.47;37.03;;;16.60;99.90;;;;;;4970067;28;20078;-84
2022/09/08 07:51:15;;;;;;;39.05;35.05;;;17.10;99.90;;;;;;4941257;29;20082;-84
2022/09/08 07:54:02;;;;;;;43.78;39.13;;;17.10;99.90;;;;;;4954489;29;20035;-84
2022/09/08 07:56:53;;;;;;;44.17;39.47;;;17.20;99.90;;;;;;4957093;28;20043;-83
2022/09/08 07:59:21;;;;;;;39.63;35.42;;;17.10;99.90;;;;;;4946169;28;20032;-83
2022/09/08 08:02:18;;;;;;;39.95;35.85;;;17.10;99.90;;;;;;4953225;28;20412;-83
2022/09/08 08:05:09;;;;;;;40.97;36.70;;;17.20;99.90;;;;;;4957007;28;20111;-83
2022/09/08 08:07:53;;;;;;;40.10;36.03;;;17.20;99.90;;;;;;4952952;28;20043;-84
2022/09/08 08:11:03;;;;;;;38.13;34.45;;;17.20;99.90;;;;;;4949604;28;20100;-83
2022/09/08 08:13:56;;;;;;;41.28;37.00;;;17.20;99.90;;;;;;4931069;29;20052;-84
2022/09/08 08:16:58;;;;;;;42.42;38.05;;;17.30;99.90;;;;;;4950766;28;20400;-84
2022/09/08 08:19:37;;;;;;;42.35;37.70;;;17.30;99.90;;;;;;4941658;29;20051;-83
2022/09/08 08:22:21;;;;;;;39.85;35.83;;;17.30;99.90;;;;;;4938468;29;20043;-86
2022/09/08 08:25:31;;;;;;;40.05;36.05;;;17.30;99.90;;;;;;4946464;28;20060;-86
2022/09/08 08:28:40;;;;;;;39.13;35.17;;;17.90;99.90;;;;;;4932945;29;20102;-84
2022/09/08 08:31:32;;;;;;;41.58;35.55;;;17.40;99.90;;;;;;4935568;29;20106;-85
2022/09/08 08:34:29;;;;;;;40.13;33.83;;;17.40;99.90;;;;;;4936328;28;20043;-85
2022/09/08 08:37:17;;;;;;;33.00;29.70;;;17.50;99.90;;;;;;4956097;29;20461;-85
2022/09/08 08:39:48;;;;;;;32.15;28.73;;;17.50;99.90;;;;;;4963334;28;20416;-84
2022/09/08 08:43:07;;;;;;;30.95;27.70;;;17.50;99.90;;;;;;4912023;29;20079;-84
2022/09/08 08:45:57;;;;;;;25.20;22.45;;;17.50;99.90;;;;;;4909843;29;20047;-85
2022/09/08 08:48:55;;;;;;;23.38;20.92;;;17.50;99.90;;;;;;4880361;29;20518;-84
2022/09/08 08:51:57;;;;;;;22.08;19.70;;;17.60;99.90;;;;;;4875624;29;20048;-85
2022/09/08 08:55:34;;;;;;;19.08;17.02;;;17.60;99.90;;;;;;4944788;28;20042;-84
2022/09/08 08:58:31;;;;;;;20.98;14.43;;;17.60;99.90;;;;;;4944897;29;20091;-85
2022/09/08 09:01:15;;;;;;;18.05;13.68;;;17.60;99.90;;;;;;4950314;29;20047;-85
2022/09/08 09:04:05;;;;;;;13.95;10.70;;;17.70;99.90;;;;;;4945965;28;20039;-84
2022/09/08 09:07:12;;;;;;;10.82;9.40;;;17.70;99.90;;;;;;4949210;28;20051;-86
2022/09/08 09:09:59;;;;;;;10.75;9.63;;;17.70;99.90;;;;;;4942198;28;20071;-84
2022/09/08 09:13:02;;;;;;;10.40;9.23;;;17.80;99.90;;;;;;4942774;29;20085;-83
2022/09/08 09:15:50;;;;;;;10.95;8.02;;;17.80;99.90;;;;;;4937543;28;20059;-84
2022/09/08 09:19:28;;;;;;;9.20;7.78;;;17.80;99.90;;;;;;4941912;28;20058;-87
2022/09/08 09:22:32;;;;;;;10.40;7.38;;;17.80;99.90;;;;;;4938359;29;20055;-83
2022/09/08 09:25:23;;;;;;;11.95;6.60;;;17.90;99.90;;;;;;4962486;28;20102;-84
2022/09/08 09:28:44;;;;;;;7.18;5.97;;;17.90;99.90;;;;;;4944694;28;20050;-85
2022/09/08 09:32:01;;;;;;;11.60;6.63;;;17.90;99.90;;;;;;4932853;28;20055;-84
2022/09/08 09:34:39;;;;;;;6.78;6.10;;;17.90;99.90;;;;;;4930243;29;20447;-84
2022/09/08 09:37:13;;;;;;;6.22;5.55;;;17.90;99.90;;;;;;4963240;28;20055;-84
2022/09/08 09:40:11;;;;;;;6.75;5.72;;;17.90;99.90;;;;;;4960775;28;20396;-83
2022/09/08 09:43:27;;;;;;;8.38;6.05;;;17.90;99.90;;;;;;4951113;29;20130;-83
2022/09/08 09:46:24;;;;;;;6.50;4.72;;;17.80;99.90;;;;;;4950435;29;20051;-83
2022/09/08 09:49:13;;;;;;;5.43;4.88;;;17.80;99.90;;;;;;4948993;28;20043;-84
2022/09/08 09:52:22;;;;;;;5.82;4.15;;;17.80;99.90;;;;;;4948063;28;20046;-84
2022/09/08 09:55:03;;;;;;;4.05;3.55;;;17.80;99.90;;;;;;4939488;29;20085;-83
2022/09/08 09:58:15;;;;;;;4.25;3.80;;;17.70;99.90;;;;;;4945009;29;20091;-84
2022/09/08 10:01:03;;;;;;;3.78;3.28;;;17.70;99.90;;;;;;4938107;29;20107;-83
2022/09/08 10:03:41;;;;;;;5.43;3.47;;;17.70;99.90;;;;;;4948490;29;20043;-84
2022/09/08 10:06:09;;;;;;;4.65;3.08;;;18.00;99.90;;;;;;4944281;29;20054;-83
2022/09/08 10:08:58;;;;;;;5.22;3.03;;;18.00;99.90;;;;;;4950723;29;20043;-84
2022/09/08 10:12:18;;;;;;;5.43;3.13;;;17.70;99.90;;;;;;4946534;28;20122;-84
2022/09/08 10:15:32;;;;;;;;;;;17.70;99.90;;;;;;4948553;28;20093;-83
2022/09/08 10:18:27;;;;;;;5.07;2.53;;;17.70;99.90;;;;;;4951128;28;19930;-84
2022/09/08 10:21:32;;;;;;;4.70;2.63;;;17.80;99.90;;;;;;4950232;28;20178;-84
2022/09/08 10:24:36;;;;;;;3.10;2.00;;;17.70;99.90;;;;;;4936987;28;20039;-84
2022/09/08 10:28:36;;;;;;;2.63;1.65;;;17.70;99.90;;;;;;4898411;29;20148;-84
2022/09/08 10:35:26;;;;;;;3.25;2.35;;;17.60;99.90;;;;;;4944825;28;20038;-84
2022/09/08 10:38:51;;;;;;;2.88;2.00;;;17.60;99.90;;;;;;4954852;28;20043;-84
2022/09/08 10:41:57;;;;;;;5.55;3.15;;;17.70;99.90;;;;;;4962173;28;20062;-84
2022/09/08 10:45:10;;;;;;;3.85;2.50;;;17.70;99.90;;;;;;4954187;28;20065;-84
2022/09/08 10:48:32;;;;;;;5.60;2.53;;;17.60;99.90;;;;;;4943468;28;20094;-84
2022/09/08 10:51:43;;;;;;;3.92;1.70;;;17.70;99.90;;;;;;4947865;29;20046;-84
2022/09/08 10:54:59;;;;;;;1.92;1.70;;;17.70;99.90;;;;;;4957020;28;20419;-84
2022/09/08 11:02:01;;;;;;;3.42;2.10;;;17.60;99.90;;;;;;4954142;28;20043;-84
2022/09/08 11:13:12;;;;;;;4.43;1.73;;;17.60;99.90;;;;;;4918088;29;20051;-85
2022/09/08 11:16:50;;;;;;;2.15;1.70;;;17.60;99.90;;;;;;4909891;29;20106;-85
2022/09/08 11:24:05;;;;;;;3.53;2.42;;;17.70;99.90;;;;;;4929571;28;20563;-84
2022/09/08 11:43:37;;;;;;;3.28;1.67;;;17.70;99.90;;;;;;4905320;29;20196;-84
2022/09/08 11:47:20;;;;;;;2.63;1.67;;;17.70;99.90;;;;;;4873428;29;20754;-85
2022/09/08 11:58:22;;;;;;;2.83;1.85;;;17.70;99.90;;;;;;4793822;29;20064;-85
2022/09/08 12:46:14;;;;;;;6.50;5.90;;;18.50;99.90;;;;;;4885657;29;20450;-86
2022/09/08 14:03:38;;;;;;;9.38;8.63;;;19.50;99.90;;;;;;4942930;28;20114;-85
2022/09/08 14:18:13;;;;;;;3.78;3.47;;;19.20;99.90;;;;;;4908306;29;20062;-84
2022/09/08 14:21:10;;;;;;;4.35;3.47;;;19.10;99.90;;;;;;4905482;29;20804;-85
2022/09/08 14:23:35;;;;;;;3.13;2.92;;;19.20;99.90;;;;;;4951582;29;20101;-84
2022/09/08 14:26:20;;;;;;;4.65;3.22;;;19.20;99.90;;;;;;4948992;29;20078;-84
2022/09/08 14:28:56;;;;;;;6.35;2.05;;;19.20;99.90;;;;;;4947213;29;20039;-84
2022/09/08 14:31:52;;;;;;;2.75;1.50;;;19.30;99.90;;;;;;4944723;28;20070;-84
2022/09/08 14:34:49;;;;;;;3.85;1.67;;;19.30;99.90;;;;;;4945610;28;20086;-84
2022/09/08 14:37:26;;;;;;;3.42;1.65;;;19.30;99.90;;;;;;4962572;28;20046;-84
2022/09/08 14:40:07;;;;;;;2.35;1.98;;;19.30;99.90;;;;;;4937146;29;20036;-84
2022/09/08 14:42:42;;;;;;;3.60;1.67;;;19.30;99.90;;;;;;4944960;29;20102;-84
2022/09/08 14:45:35;;;;;;;5.95;1.67;;;19.20;99.90;;;;;;4944431;28;20040;-84
2022/09/08 14:48:06;;;;;;;4.28;2.03;;;19.20;99.90;;;;;;4941263;28;20369;-84
2022/09/08 14:51:18;;;;;;;3.65;1.92;;;19.30;99.90;;;;;;4961851;28;20048;-84
2022/09/08 14:54:12;;;;;;;2.53;2.15;;;19.00;99.90;;;;;;4944544;28;20059;-84
2022/09/08 14:57:24;;;;;;;4.25;2.50;;;18.90;99.90;;;;;;4928827;29;20070;-83
2022/09/08 15:00:04;;;;;;;4.20;2.47;;;18.90;99.90;;;;;;4931957;28;20055;-83
2022/09/08 15:02:30;;;;;;;3.10;2.35;;;18.90;99.90;;;;;;4962580;28;20552;-83
2022/09/08 15:05:20;;;;;;;4.22;2.83;;;18.80;99.90;;;;;;4932301;29;20043;-84
2022/09/08 15:08:12;;;;;;;4.05;3.13;;;18.80;99.90;;;;;;4953799;28;20043;-84
2022/09/08 15:10:49;;;;;;;3.50;2.40;;;18.80;99.90;;;;;;4941914;28;20054;-83
2022/09/08 15:13:27;;;;;;;4.72;3.03;;;18.80;99.90;;;;;;4952668;28;20062;-84
2022/09/08 15:16:11;;;;;;;3.47;3.17;;;18.90;99.90;;;;;;4964915;28;20047;-84
2022/09/08 15:19:03;;;;;;;5.05;4.10;;;18.90;99.90;;;;;;4948831;28;20055;-84
2022/09/08 15:21:44;;;;;;;5.10;3.85;;;18.90;99.90;;;;;;4952808;29;20059;-84
2022/09/08 15:24:35;;;;;;;4.47;4.07;;;18.90;99.90;;;;;;4945740;28;20044;-84
2022/09/08 15:27:24;;;;;;;5.80;4.35;;;19.00;99.90;;;;;;4949121;28;20039;-84
2022/09/08 15:30:10;;;;;;;5.97;5.35;;;18.90;99.90;;;;;;4934659;29;20067;-84
2022/09/08 15:33:12;;;;;;;5.88;5.30;;;18.80;99.90;;;;;;4947245;28;20055;-84
2022/09/08 15:35:50;;;;;;;8.43;6.03;;;18.80;99.90;;;;;;4945855;29;20047;-84
2022/09/08 15:38:59;;;;;;;6.45;5.85;;;18.70;99.90;;;;;;4946107;28;20514;-84
2022/09/08 15:41:29;;;;;;;6.30;5.15;;;18.60;99.90;;;;;;4947034;28;20035;-84
2022/09/08 15:44:10;;;;;;;6.00;4.97;;;18.70;99.90;;;;;;4953580;28;20051;-84
2022/09/08 15:47:03;;;;;;;9.27;5.68;;;18.60;99.90;;;;;;4948165;28;20500;-84
2022/09/08 15:49:55;;;;;;;9.32;6.15;;;18.50;99.90;;;;;;4946586;28;20508;-84
2022/09/08 15:52:42;;;;;;;8.80;6.63;;;18.50;99.90;;;;;;4943088;28;20143;-84
2022/09/08 15:55:31;;;;;;;7.40;5.72;;;18.40;99.90;;;;;;4945263;28;20031;-84
2022/09/08 15:58:17;;;;;;;7.90;6.35;;;18.40;99.90;;;;;;4933209;28;20040;-84
2022/09/08 16:01:02;;;;;;;7.20;6.50;;;18.40;99.90;;;;;;4941882;28;20468;-86
2022/09/08 16:03:39;;;;;;;7.90;7.10;;;18.40;99.90;;;;;;4944199;28;20058;-83
2022/09/08 16:06:41;;;;;;;14.65;7.03;;;18.50;99.90;;;;;;4949440;28;20046;-81
2022/09/08 16:09:12;;;;;;;7.00;5.97;;;18.60;99.90;;;;;;4962181;28;20813;-83
2022/09/08 16:11:59;;;;;;;7.93;7.20;;;18.70;99.90;;;;;;4946508;29;20043;-83
2022/09/08 16:14:37;;;;;;;7.38;6.57;;;18.80;99.90;;;;;;4943347;28;20043;-83
2022/09/08 16:17:11;;;;;;;8.30;6.85;;;18.80;99.90;;;;;;4938991;28;20146;-83
2022/09/08 16:19:37;;;;;;;8.48;6.32;;;18.70;99.90;;;;;;4941411;28;20050;-83
2022/09/08 16:22:05;;;;;;;7.32;6.63;;;18.70;99.90;;;;;;4954487;28;20066;-82
2022/09/08 16:24:51;;;;;;;8.65;7.75;;;18.70;99.90;;;;;;4946569;28;20035;-82
2022/09/08 16:42:49;;;;;;;9.10;7.72;;;18.50;99.90;;;;;;4923829;29;20218;-87
2022/09/08 17:19:53;;;;;;;13.70;9.70;;;18.30;99.90;;;;;;4891746;29;20196;-82
2022/09/08 17:23:40;;;;;;;10.68;9.05;;;18.10;99.90;;;;;;4879519;29;20039;-84
2022/09/08 17:34:41;;;;;;;13.52;10.20;;;18.00;99.90;;;;;;4883812;29;20056;-84
2022/09/08 18:07:18;;;;;;;8.40;6.60;;;17.30;99.90;;;;;;4872480;29;20605;-83
2022/09/08 18:09:54;;;;;;;9.82;6.63;;;17.20;99.90;;;;;;4879433;29;20051;-83
2022/09/08 18:12:27;;;;;;;10.88;7.75;;;17.20;99.90;;;;;;4945148;28;20043;-83
2022/09/08 18:15:23;;;;;;;8.75;7.13;;;17.20;99.90;;;;;;4947309;29;20134;-83
2022/09/08 18:17:57;;;;;;;7.23;6.47;;;17.00;99.90;;;;;;4947509;28;20047;-83
2022/09/08 18:20:38;;;;;;;7.55;6.80;;;17.00;99.90;;;;;;4948427;28;20119;-83
2022/09/08 18:23:27;;;;;;;11.25;7.50;;;17.00;99.90;;;;;;4935927;29;20082;-83
2022/09/08 18:26:27;;;;;;;10.63;6.30;;;16.90;99.90;;;;;;4949063;28;20385;-83
2022/09/08 18:29:16;;;;;;;10.05;6.25;;;16.90;99.90;;;;;;4950883;28;20519;-83
2022/09/08 18:32:05;;;;;;;7.05;6.35;;;16.80;99.90;;;;;;4940832;28;20512;-84
2022/09/08 18:34:49;;;;;;;9.98;6.97;;;16.70;99.90;;;;;;4953314;28;20043;-83
2022/09/08 18:37:21;;;;;;;6.80;5.97;;;16.80;99.90;;;;;;4949598;28;20547;-83
2022/09/08 18:39:59;;;;;;;6.97;5.68;;;16.70;99.90;;;;;;4948471;28;20130;-83
2022/09/08 18:42:55;;;;;;;9.32;6.10;;;16.80;99.90;;;;;;4953025;28;20107;-83
2022/09/08 18:46:00;;;;;;;9.75;5.72;;;16.70;99.90;;;;;;4944257;28;20035;-85
2022/09/08 18:48:33;;;;;;;19.52;7.18;;;16.70;99.90;;;;;;4946883;28;20043;-83
2022/09/08 18:51:31;;;;;;;9.23;5.60;;;16.60;99.90;;;;;;4943978;28;20044;-83